createdAt,value
2022-12-15T00:01:46.094Z,99597.03
2022-12-15T00:04:31.965Z,99603.53
2022-12-15T00:07:19.337Z,99610.88
2022-12-15T00:10:05.142Z,99610.16
2022-12-15T00:12:51.286Z,99608.66
2022-12-15T00:15:37.102Z,99600.50
2022-12-15T00:18:23.744Z,99612.81
2022-12-15T00:21:09.507Z,99612.66
2022-12-15T00:23:56.499Z,99613.75
2022-12-15T00:26:42.311Z,99621.97
2022-12-15T00:29:28.301Z,99622.84
2022-12-15T00:32:14.052Z,99625.28
2022-12-15T00:34:59.944Z,99617.66
2022-12-15T00:37:45.639Z,99619.31
2022-12-15T00:40:15.044Z,99619.28
2022-12-15T00:42:42.373Z,99622.78
2022-12-15T00:45:11.005Z,99623.81
2022-12-15T00:47:38.521Z,99623.91
2022-12-15T00:50:25.164Z,99634.56
2022-12-15T00:53:10.803Z,99617.81
2022-12-15T00:55:58.087Z,99624.59
2022-12-15T00:58:43.934Z,99623.00
2022-12-15T01:01:30.444Z,99618.16
2022-12-15T01:04:15.885Z,99619.53
2022-12-15T01:07:02.116Z,99627.00
2022-12-15T01:09:47.800Z,99636.94
2022-12-15T01:12:35.083Z,99635.31
2022-12-15T01:15:21.109Z,99642.75
2022-12-15T01:18:06.891Z,99648.50
2022-12-15T01:20:34.748Z,99637.75
2022-12-15T01:23:02.004Z,99643.69
2022-12-15T01:25:29.623Z,99642.78
2022-12-15T01:27:58.284Z,99641.94
2022-12-15T01:30:27.200Z,99654.44
2022-12-15T01:32:54.766Z,99656.16
2022-12-15T01:35:22.458Z,99657.72
2022-12-15T01:37:50.346Z,99664.38
2022-12-15T01:40:38.597Z,99655.38
2022-12-15T01:43:13.899Z,99660.34
2022-12-15T01:46:02.033Z,99672.72
2022-12-15T01:48:34.599Z,99678.53
2022-12-15T01:51:10.378Z,99680.31
2022-12-15T01:53:42.671Z,99677.03
2022-12-15T01:56:11.056Z,99676.13
2022-12-15T01:58:42.797Z,99683.66
2022-12-15T02:01:10.901Z,99663.91
2022-12-15T02:03:39.864Z,99661.63
2022-12-15T02:06:09.394Z,99675.69
2022-12-15T02:08:38.157Z,99686.56
2022-12-15T02:11:43.171Z,99689.91
2022-12-15T02:14:14.793Z,99679.28
2022-12-15T02:17:07.031Z,99687.59
2022-12-15T02:19:59.949Z,99704.19
2022-12-15T02:22:40.725Z,99704.19
2022-12-15T02:25:22.817Z,99700.84
2022-12-15T02:27:57.223Z,99704.19
2022-12-15T02:30:32.783Z,99677.09
2022-12-15T02:33:07.175Z,99695.13
2022-12-15T02:35:45.418Z,99706.03
2022-12-15T02:38:12.916Z,99711.00
2022-12-15T02:40:40.611Z,99709.41
2022-12-15T02:43:10.227Z,99696.38
2022-12-15T02:45:51.382Z,99707.06
2022-12-15T02:48:29.184Z,99699.53
2022-12-15T02:51:12.045Z,99699.56
2022-12-15T02:53:53.019Z,99702.06
2022-12-15T02:56:30.214Z,99695.63
2022-12-15T02:59:04.620Z,99702.84
2022-12-15T03:01:40.249Z,99711.19
2022-12-15T03:04:10.414Z,99709.19
2022-12-15T03:06:38.328Z,99707.25
2022-12-15T03:09:05.908Z,99713.22
2022-12-15T03:11:33.697Z,99721.63
2022-12-15T03:14:01.118Z,99724.84
2022-12-15T03:16:28.689Z,99722.22
2022-12-15T03:18:57.420Z,99715.69
2022-12-15T03:21:24.924Z,99724.63
2022-12-15T03:23:52.151Z,99716.25
2022-12-15T03:26:19.382Z,99721.22
2022-12-15T03:28:46.744Z,99731.16
2022-12-15T03:31:14.189Z,99714.44
2022-12-15T03:33:41.790Z,99716.75
2022-12-15T03:36:10.833Z,99724.22
2022-12-15T03:38:38.059Z,99721.53
2022-12-15T03:41:05.698Z,99719.84
2022-12-15T03:43:33.398Z,99726.53
2022-12-15T03:46:01.252Z,99730.59
2022-12-15T03:48:28.607Z,99741.41
2022-12-15T03:50:55.924Z,99734.84
2022-12-15T03:53:24.775Z,99741.25
2022-12-15T03:55:52.219Z,99741.09
2022-12-15T03:58:19.754Z,99747.13
2022-12-15T04:00:47.088Z,99747.91
2022-12-15T04:03:14.377Z,99748.56
2022-12-15T04:05:41.819Z,99747.91
2022-12-15T04:08:09.074Z,99746.38
2022-12-15T04:10:37.691Z,99741.41
2022-12-15T04:13:07.478Z,99754.34
2022-12-15T04:15:35.309Z,99755.28
2022-12-15T04:18:03.355Z,99750.50
2022-12-15T04:20:30.594Z,99757.69
2022-12-15T04:22:58.025Z,99761.88
2022-12-15T04:25:44.878Z,99764.09
2022-12-15T04:28:32.642Z,99755.97
2022-12-15T04:31:25.366Z,99752.63
2022-12-15T04:34:14.881Z,99771.78
2022-12-15T04:37:04.201Z,99772.38
2022-12-15T04:39:49.937Z,99765.47
2022-12-15T04:42:38.027Z,99783.16
2022-12-15T04:45:28.037Z,99770.84
2022-12-15T04:48:13.765Z,99773.34
2022-12-15T04:50:59.523Z,99771.47
2022-12-15T04:53:45.164Z,99792.06
2022-12-15T04:56:32.872Z,99780.25
2022-12-15T04:59:19.646Z,99774.94
2022-12-15T05:02:07.819Z,99787.16
2022-12-15T05:04:53.667Z,99792.34
2022-12-15T05:07:39.790Z,99795.59
2022-12-15T05:10:26.378Z,99792.56
2022-12-15T05:13:12.290Z,99790.09
2022-12-15T05:15:58.120Z,99807.78
2022-12-15T05:18:45.140Z,99813.31
2022-12-15T05:21:31.160Z,99805.28
2022-12-15T05:24:17.323Z,99803.06
2022-12-15T05:27:02.936Z,99804.09
2022-12-15T05:29:48.568Z,99804.19
2022-12-15T05:32:15.874Z,99802.78
2022-12-15T05:34:44.613Z,99804.59
2022-12-15T05:37:11.928Z,99799.84
2022-12-15T05:39:39.176Z,99815.97
2022-12-15T05:42:06.644Z,99810.41
2022-12-15T05:44:34.272Z,99821.34
2022-12-15T05:47:01.544Z,99815.66
2022-12-15T05:49:29.070Z,99824.19
2022-12-15T05:51:57.855Z,99836.69
2022-12-15T05:54:25.620Z,99830.94
2022-12-15T05:56:53.111Z,99826.28
2022-12-15T05:59:20.662Z,99832.59
2022-12-15T06:01:48.104Z,99840.28
2022-12-15T06:04:15.868Z,99830.00
2022-12-15T06:06:43.177Z,99838.41
2022-12-15T06:09:12.119Z,99840.03
2022-12-15T06:11:39.536Z,99840.88
2022-12-15T06:14:06.953Z,99845.97
2022-12-15T06:16:38.251Z,99856.03
2022-12-15T06:19:08.945Z,99862.59
2022-12-15T06:21:36.442Z,99868.50
2022-12-15T06:24:05.406Z,99877.63
2022-12-15T06:26:36.424Z,99871.47
2022-12-15T06:29:05.896Z,99884.72
2022-12-15T06:31:34.105Z,99889.00
2022-12-15T06:34:04.396Z,99871.81
2022-12-15T06:36:32.595Z,99850.47
2022-12-15T06:39:01.011Z,99882.56
2022-12-15T06:41:30.737Z,99885.59
2022-12-15T06:44:00.392Z,99889.56
2022-12-15T06:46:29.909Z,99908.03
2022-12-15T06:48:57.857Z,99890.88
2022-12-15T06:51:28.559Z,99898.34
2022-12-15T06:53:56.517Z,99889.94
2022-12-15T06:56:32.464Z,99894.16
2022-12-15T06:59:03.576Z,99885.66
2022-12-15T07:01:31.589Z,99910.44
2022-12-15T07:04:01.724Z,99898.41
2022-12-15T07:06:36.609Z,99896.19
2022-12-15T07:09:07.317Z,99899.59
2022-12-15T07:11:35.366Z,99890.81
2022-12-15T07:14:05.115Z,99906.47
2022-12-15T07:16:32.631Z,99901.31
2022-12-15T07:19:00.003Z,99901.38
2022-12-15T07:21:27.238Z,99898.13
2022-12-15T07:23:56.430Z,99896.16
2022-12-15T07:26:25.238Z,99904.31
2022-12-15T07:28:53.986Z,99912.44
2022-12-15T07:31:23.846Z,99889.97
2022-12-15T07:33:52.763Z,99909.59
2022-12-15T07:36:20.592Z,99907.03
2022-12-15T07:38:51.076Z,99915.28
2022-12-15T07:41:20.352Z,99921.09
2022-12-15T07:43:48.379Z,99920.59
2022-12-15T07:46:16.187Z,99923.59
2022-12-15T07:48:50.353Z,99917.78
2022-12-15T07:51:20.342Z,99922.63
2022-12-15T07:53:49.644Z,99936.72
2022-12-15T07:56:17.602Z,99917.75
2022-12-15T07:58:45.161Z,99915.19
2022-12-15T08:01:13.787Z,99915.91
2022-12-15T08:03:41.749Z,99902.66
2022-12-15T08:06:12.220Z,99895.03
2022-12-15T08:08:40.606Z,99899.88
2022-12-15T08:11:08.964Z,99891.47
2022-12-15T08:16:24.473Z,99902.97
2022-12-15T08:18:52.051Z,99906.25
2022-12-15T08:21:20.921Z,99910.25
2022-12-15T08:23:48.415Z,99910.09
2022-12-15T08:26:18.575Z,99876.38
2022-12-15T08:28:46.164Z,99925.72
2022-12-15T08:31:15.350Z,99921.91
2022-12-15T08:33:42.943Z,99909.28
2022-12-15T08:36:13.236Z,99893.69
2022-12-15T08:38:43.493Z,99910.16
2022-12-15T08:41:13.070Z,99913.53
2022-12-15T08:43:47.467Z,99911.75
2022-12-15T08:46:16.277Z,99905.06
2022-12-15T08:48:43.707Z,99926.28
2022-12-15T08:51:11.475Z,99916.06
2022-12-15T08:53:38.886Z,99910.41
2022-12-15T08:56:09.787Z,99908.72
2022-12-15T08:58:37.122Z,99903.53
2022-12-15T09:01:07.119Z,99904.34
2022-12-15T09:03:36.258Z,99908.59
2022-12-15T09:06:04.524Z,99917.59
2022-12-15T09:08:33.097Z,99907.34
2022-12-15T09:11:01.478Z,99909.59
2022-12-15T09:13:30.626Z,99892.38
2022-12-15T09:16:14.001Z,99900.63
2022-12-15T09:18:43.402Z,99851.16
2022-12-15T09:21:11.935Z,99899.63
2022-12-15T09:23:39.771Z,99891.38
2022-12-15T09:26:08.956Z,99879.75
2022-12-15T09:28:38.682Z,99878.22
2022-12-15T09:31:08.225Z,99870.06
2022-12-15T09:33:36.059Z,99861.63
2022-12-15T09:36:04.344Z,99870.84
2022-12-15T09:38:33.167Z,99864.97
2022-12-15T09:41:08.602Z,99855.00
2022-12-15T09:43:46.807Z,99850.03
2022-12-15T09:46:24.390Z,99844.06
2022-12-15T09:48:55.150Z,99845.56
2022-12-15T09:51:30.417Z,99837.94
2022-12-15T09:53:58.760Z,99844.44
2022-12-15T09:56:36.490Z,99829.50
2022-12-15T09:59:20.297Z,99832.69
2022-12-15T10:01:56.290Z,99832.69
2022-12-15T10:04:34.201Z,99825.97
2022-12-15T10:07:09.813Z,99812.91
2022-12-15T10:09:38.668Z,99812.09
2022-12-15T10:12:10.713Z,99784.91
2022-12-15T10:14:43.273Z,99793.78
2022-12-15T10:17:21.692Z,99783.81
2022-12-15T10:19:55.495Z,99785.59
2022-12-15T10:22:26.190Z,99781.38
2022-12-15T10:27:59.931Z,99772.56
2022-12-15T10:30:29.188Z,99794.78
2022-12-15T10:33:01.900Z,99802.25
2022-12-15T10:35:31.687Z,99786.25
2022-12-15T10:38:01.205Z,99817.56
2022-12-15T10:40:50.525Z,99813.59
2022-12-15T10:43:26.578Z,99807.94
2022-12-15T10:46:12.850Z,99803.88
2022-12-15T10:48:40.810Z,99809.16
2022-12-15T10:51:30.021Z,99804.88
2022-12-15T10:54:05.289Z,99811.72
2022-12-15T10:56:34.443Z,99807.28
2022-12-15T10:59:04.128Z,99835.91
2022-12-15T11:01:34.772Z,99837.53
2022-12-15T11:04:02.486Z,99837.63
2022-12-15T11:06:31.589Z,99837.72
2022-12-15T11:09:23.920Z,99847.69
2022-12-15T11:12:12.029Z,99824.56
2022-12-15T11:14:46.110Z,99839.41
2022-12-15T11:17:18.932Z,99835.28
2022-12-15T11:20:01.647Z,99844.44
2022-12-15T11:22:40.943Z,99846.28
2022-12-15T11:25:20.031Z,99838.84
2022-12-15T11:27:49.121Z,99824.97
2022-12-15T11:30:18.362Z,99835.63
2022-12-15T11:32:50.288Z,99838.09
2022-12-15T11:35:23.689Z,99828.28
2022-12-15T11:37:56.915Z,99814.31
2022-12-15T11:40:33.369Z,99825.81
2022-12-15T11:43:25.305Z,99810.09
2022-12-15T11:46:04.731Z,99819.97
2022-12-15T11:48:41.890Z,99815.72
2022-12-15T11:51:17.727Z,99810.78
2022-12-15T11:54:05.648Z,99802.50
2022-12-15T11:56:35.604Z,99818.34
2022-12-15T11:59:36.148Z,99810.88
2022-12-15T12:02:44.452Z,99803.56
2022-12-15T12:05:44.100Z,99794.03
2022-12-15T12:08:29.390Z,99807.25
2022-12-15T12:11:06.369Z,99797.44
2022-12-15T12:13:42.571Z,99808.38
2022-12-15T12:16:24.305Z,99798.47
2022-12-15T12:18:57.174Z,99787.59
2022-12-15T12:21:30.187Z,99783.66
2022-12-15T12:24:02.123Z,99780.25
2022-12-15T12:26:35.383Z,99779.44
2022-12-15T12:29:08.306Z,99768.88
2022-12-15T12:31:42.678Z,99774.53
2022-12-15T12:34:17.934Z,99764.63
2022-12-15T12:36:49.589Z,99757.94
2022-12-15T12:39:20.494Z,99761.19
2022-12-15T12:41:55.651Z,99764.44
2022-12-15T12:44:29.626Z,99757.81
2022-12-15T12:46:58.803Z,99742.81
2022-12-15T12:49:30.719Z,99741.13
2022-12-15T12:52:03.735Z,99732.84
2022-12-15T12:54:43.421Z,99713.88
2022-12-15T12:57:36.587Z,99712.13
2022-12-15T13:00:15.498Z,99707.16
2022-12-15T13:02:53.713Z,99703.41
2022-12-15T13:05:28.610Z,99710.53
2022-12-15T13:08:27.385Z,99700.63
2022-12-15T13:10:56.468Z,99684.44
2022-12-15T13:13:48.492Z,99693.47
2022-12-15T13:16:24.410Z,99695.78
2022-12-15T13:19:02.145Z,99690.00
2022-12-15T13:21:54.361Z,99693.31
2022-12-15T13:24:33.658Z,99680.16
2022-12-15T13:27:12.150Z,99676.00
2022-12-15T13:29:58.982Z,99669.47
2022-12-15T13:32:33.420Z,99672.88
2022-12-15T13:35:17.427Z,99664.56
2022-12-15T13:37:49.003Z,99662.22
2022-12-15T13:40:50.426Z,99654.03
2022-12-15T13:43:45.996Z,99649.09
2022-12-15T13:46:22.556Z,99647.47
2022-12-15T13:49:01.059Z,99647.50
2022-12-15T13:51:33.181Z,99637.06
2022-12-15T13:54:04.819Z,99635.22
2022-12-15T13:56:46.320Z,99641.81
2022-12-15T13:59:25.572Z,99636.78
2022-12-15T14:01:53.831Z,99629.38
2022-12-15T14:04:22.927Z,99644.28
2022-12-15T14:06:53.664Z,99614.69
2022-12-15T14:09:25.363Z,99640.06
2022-12-15T14:11:54.289Z,99636.63
2022-12-15T14:14:29.994Z,99648.22
2022-12-15T14:17:03.866Z,99648.22
2022-12-15T14:19:39.118Z,99633.28
2022-12-15T14:22:26.686Z,99634.06
2022-12-15T14:25:01.960Z,99598.69
2022-12-15T14:27:33.857Z,99616.53
2022-12-15T14:30:30.432Z,99610.63
2022-12-15T14:33:03.502Z,99618.16
2022-12-15T14:35:36.321Z,99612.72
2022-12-15T14:38:08.354Z,99643.22
2022-12-15T14:40:37.955Z,99611.06
2022-12-15T14:43:07.218Z,99624.22
2022-12-15T14:45:36.095Z,99617.53
2022-12-15T14:50:59.674Z,99611.13
2022-12-15T14:53:31.152Z,99612.81
2022-12-15T14:56:11.881Z,99626.03
2022-12-15T14:58:41.041Z,99625.38
2022-12-15T15:01:25.017Z,99634.41
2022-12-15T15:03:10.011Z,99793.06
2022-12-15T15:04:00.649Z,99623.00
2022-12-15T15:06:35.770Z,99616.69
2022-12-15T15:09:16.881Z,99636.38
2022-12-15T15:11:44.593Z,99624.94
2022-12-15T15:14:15.174Z,99646.53
2022-12-15T15:16:44.719Z,99645.06
2022-12-15T15:19:20.048Z,99647.69
2022-12-15T15:21:48.026Z,99645.28
2022-12-15T15:24:25.205Z,99648.63
2022-12-15T15:26:53.344Z,99632.28
2022-12-15T15:29:38.520Z,99610.19
2022-12-15T15:32:16.015Z,99628.13
2022-12-15T15:34:43.607Z,99624.09
2022-12-15T15:37:18.337Z,99607.72
2022-12-15T15:39:47.661Z,99607.00
2022-12-15T15:42:15.084Z,99594.69
2022-12-15T15:44:42.672Z,99588.09
2022-12-15T15:47:21.092Z,99593.00
2022-12-15T15:49:49.863Z,99596.31
2022-12-15T15:52:17.284Z,99588.25
2022-12-15T15:54:46.042Z,99585.81
2022-12-15T15:57:15.493Z,99585.84
2022-12-15T15:59:44.250Z,99578.31
2022-12-15T16:02:14.998Z,99561.78
2022-12-15T16:04:44.585Z,99558.50
2022-12-15T16:07:20.286Z,99571.94
2022-12-15T16:09:47.655Z,99552.06
2022-12-15T16:12:25.600Z,99552.94
2022-12-15T16:14:52.848Z,99542.09
2022-12-15T16:17:20.791Z,99526.22
2022-12-15T16:19:49.550Z,99526.94
2022-12-15T16:22:19.363Z,99501.44
2022-12-15T16:24:47.161Z,99531.75
2022-12-15T16:27:15.947Z,99520.03
2022-12-15T16:29:43.467Z,99513.34
2022-12-15T16:32:12.655Z,99499.09
2022-12-15T16:34:40.113Z,99495.91
2022-12-15T16:37:21.628Z,99497.34
2022-12-15T16:39:48.944Z,99494.06
2022-12-15T16:42:16.459Z,99486.59
2022-12-15T16:44:43.718Z,99475.00
2022-12-15T16:47:10.887Z,99486.59
2022-12-15T16:49:40.480Z,99464.22
2022-12-15T16:52:17.206Z,99476.63
2022-12-15T16:54:48.162Z,99481.69
2022-12-15T16:57:15.571Z,99466.69
2022-12-15T16:59:42.762Z,99472.44
2022-12-15T17:02:27.193Z,99471.66
2022-12-15T17:04:55.459Z,99471.53
2022-12-15T17:07:26.445Z,99460.66
2022-12-15T17:09:53.813Z,99460.66
2022-12-15T17:12:21.202Z,99449.03
2022-12-15T17:14:48.604Z,99445.66
2022-12-15T17:17:18.236Z,99438.28
2022-12-15T17:20:11.738Z,99448.78
2022-12-15T17:22:35.081Z,99418.94
2022-12-15T17:25:02.672Z,99427.19
2022-12-15T17:27:31.788Z,99425.38
2022-12-15T17:30:00.712Z,99422.03
2022-12-15T17:32:28.400Z,99413.63
2022-12-15T17:34:55.987Z,99395.31
2022-12-15T17:37:26.948Z,99402.75
2022-12-15T17:39:57.912Z,99382.81
2022-12-15T17:42:25.442Z,99379.47
2022-12-15T17:44:53.015Z,99365.28
2022-12-15T17:47:20.563Z,99361.03
2022-12-15T17:49:48.179Z,99346.81
2022-12-15T17:52:26.334Z,99339.19
2022-12-15T17:54:54.520Z,99360.66
2022-12-15T17:57:23.297Z,99329.81
2022-12-15T17:59:50.616Z,99326.38
2022-12-15T18:02:18.309Z,99340.28
2022-12-15T18:04:46.059Z,99308.63
2022-12-15T18:07:17.340Z,99267.41
2022-12-15T18:09:44.700Z,99295.59
2022-12-15T18:12:18.388Z,99278.25
2022-12-15T18:14:47.969Z,99286.06
2022-12-15T18:17:15.625Z,99274.41
2022-12-15T18:19:43.001Z,99285.06
2022-12-15T18:22:12.712Z,99281.72
2022-12-15T18:24:41.277Z,99272.47
2022-12-15T18:27:19.868Z,99270.03
2022-12-15T18:29:48.654Z,99252.34
2022-12-15T18:32:17.089Z,99277.94
2022-12-15T18:34:44.371Z,99252.13
2022-12-15T18:37:15.623Z,99260.38
2022-12-15T18:39:42.865Z,99246.19
2022-12-15T18:42:14.416Z,99261.00
2022-12-15T18:44:46.010Z,99242.66
2022-12-15T18:47:17.627Z,99260.78
2022-12-15T18:49:45.718Z,99248.25
2022-12-15T18:52:17.350Z,99250.09
2022-12-15T18:54:45.088Z,99245.59
2022-12-15T18:57:26.546Z,99215.59
2022-12-15T18:59:57.439Z,99253.72
2022-12-15T19:02:26.575Z,99242.06
2022-12-15T19:04:53.950Z,99246.97
2022-12-15T19:07:21.747Z,99237.03
2022-12-15T19:09:49.828Z,99234.53
2022-12-15T19:12:17.869Z,99240.22
2022-12-15T19:14:47.177Z,99231.00
2022-12-15T19:17:34.857Z,99219.31
2022-12-15T19:20:23.999Z,99192.38
2022-12-15T19:22:52.380Z,99205.84
2022-12-15T19:25:26.101Z,99217.34
2022-12-15T19:27:58.974Z,99208.06
2022-12-15T19:30:28.546Z,99206.28
2022-12-15T19:32:56.066Z,99221.16
2022-12-15T19:35:25.133Z,99203.63
2022-12-15T19:37:55.295Z,99202.00
2022-12-15T19:40:27.633Z,99191.09
2022-12-15T19:42:55.757Z,99191.16
2022-12-15T19:45:25.455Z,99180.16
2022-12-15T19:47:52.945Z,99182.53
2022-12-15T19:50:22.960Z,99179.16
2022-12-15T19:52:58.849Z,99169.84
2022-12-15T19:55:28.787Z,99159.88
2022-12-15T19:57:56.252Z,99167.97
2022-12-15T20:00:24.949Z,99174.47
2022-12-15T20:02:54.928Z,99159.47
2022-12-15T20:05:23.399Z,99168.50
2022-12-15T20:07:52.791Z,99166.75
2022-12-15T20:10:31.213Z,99170.81
2022-12-15T20:12:59.696Z,99169.88
2022-12-15T20:15:27.313Z,99174.69
2022-12-15T20:17:57.895Z,99164.66
2022-12-15T20:20:27.910Z,99160.41
2022-12-15T20:22:57.187Z,99153.63
2022-12-15T20:25:28.280Z,99166.84
2022-12-15T20:27:55.962Z,99156.00
2022-12-15T20:30:26.600Z,99140.16
2022-12-15T20:32:54.110Z,99136.91
2022-12-15T20:35:22.920Z,99148.47
2022-12-15T20:37:50.990Z,99134.59
2022-12-15T20:40:20.041Z,99146.69
2022-12-15T20:42:50.192Z,99133.59
2022-12-15T20:45:20.139Z,99136.66
2022-12-15T20:47:49.931Z,99120.94
2022-12-15T20:50:28.024Z,99126.69
2022-12-15T20:52:55.505Z,99133.97
2022-12-15T20:55:25.306Z,99116.47
2022-12-15T20:57:54.565Z,99120.50
2022-12-15T21:00:22.742Z,99118.00
2022-12-15T21:02:52.110Z,99117.00
2022-12-15T21:05:24.928Z,99128.56
2022-12-15T21:07:52.645Z,99103.59
2022-12-15T21:10:20.982Z,99112.63
2022-12-15T21:12:49.741Z,99106.25
2022-12-15T21:15:21.241Z,99099.63
2022-12-15T21:17:57.350Z,99091.88
2022-12-15T21:20:39.832Z,99091.69
2022-12-15T21:23:17.635Z,99081.97
2022-12-15T21:25:44.871Z,99092.38
2022-12-15T21:28:12.097Z,99089.00
2022-12-15T21:30:41.247Z,99082.25
2022-12-15T21:33:08.721Z,99077.13
2022-12-15T21:35:37.615Z,99058.78
2022-12-15T21:38:07.531Z,99069.38
2022-12-15T21:40:34.832Z,99060.00
2022-12-15T21:43:04.619Z,99057.38
2022-12-15T21:45:31.865Z,99058.09
2022-12-15T21:48:18.809Z,99072.97
2022-12-15T21:50:47.997Z,99092.06
2022-12-15T21:53:17.580Z,99066.19
2022-12-15T21:55:47.248Z,99055.28
2022-12-15T21:58:20.228Z,99052.72
2022-12-15T22:00:48.239Z,99051.22
2022-12-15T22:03:17.208Z,99057.56
2022-12-15T22:05:44.571Z,99048.31
2022-12-15T22:08:16.712Z,99049.13
2022-12-15T22:10:45.866Z,99040.72
2022-12-15T22:13:17.875Z,99032.88
2022-12-15T22:15:46.224Z,99050.44
2022-12-15T22:18:19.934Z,99046.25
2022-12-15T22:20:50.547Z,99033.81
2022-12-15T22:23:19.034Z,99034.53
2022-12-15T22:25:51.150Z,99043.66
2022-12-15T22:28:21.873Z,99040.22
2022-12-15T22:30:50.570Z,99058.50
2022-12-15T22:33:23.897Z,99028.69
2022-12-15T22:35:54.898Z,99033.53
2022-12-15T22:38:23.859Z,99023.84
2022-12-15T22:40:53.776Z,99010.16
2022-12-15T22:43:28.467Z,99042.63
2022-12-15T22:45:56.219Z,99036.75
2022-12-15T22:48:31.752Z,99036.25
2022-12-15T22:51:00.973Z,99028.69
2022-12-15T22:53:31.230Z,99047.50
2022-12-15T22:56:00.517Z,99040.81
2022-12-15T22:58:37.819Z,99040.72
2022-12-15T23:01:06.755Z,99044.84
2022-12-15T23:03:35.146Z,99047.28
2022-12-15T23:06:04.924Z,99040.53
2022-12-15T23:08:32.808Z,99034.75
2022-12-15T23:11:18.952Z,99047.94
2022-12-15T23:13:46.341Z,99032.09
2022-12-15T23:16:20.512Z,99034.66
2022-12-15T23:18:49.059Z,99044.44
2022-12-15T23:21:18.129Z,99038.56
2022-12-15T23:23:46.050Z,99046.72
2022-12-15T23:26:14.522Z,99040.84
2022-12-15T23:28:43.465Z,99039.00
2022-12-15T23:31:11.573Z,99028.13
2022-12-15T23:33:39.139Z,99028.00
2022-12-15T23:36:06.794Z,99035.34
2022-12-15T23:38:35.850Z,99031.97
2022-12-15T23:41:03.094Z,99026.00
2022-12-15T23:43:32.542Z,99023.44
2022-12-15T23:46:01.860Z,99021.69
2022-12-15T23:48:30.885Z,99008.19
2022-12-15T23:51:04.740Z,99018.97
2022-12-15T23:53:32.666Z,99018.00
2022-12-15T23:56:09.710Z,99010.44
2022-12-15T23:58:37.757Z,99023.66
